AirNav   Phillips 66 Aviation Fuel
 
 373 users online  

4G1 Greenville Municipal Airport
Greenville, Pennsylvania, USA

GOING TO GREENVILLE?


FAA INFORMATION EFFECTIVE 06 DECEMBER 2018

Location

FAA Identifier: 4G1
Lat/Long: 41-26-48.3592N / 080-23-28.3083W
41-26.805987N / 080-23.471805W
41.4467664 / -80.3911967
(estimated)
Elevation: 1206.2 ft. / 367.6 m (surveyed)
Variation: 09W (2015)
From city: 3 miles N of GREENVILLE, PA
Time zone: UTC -5 (UTC -4 during Daylight Saving Time)
Zip code: 16125

Airport Operations

Airport use: Open to the public
Activation date: 09/1954
Control tower: no
ARTCC: CLEVELAND CENTER
FSS: ALTOONA FLIGHT SERVICE STATION
NOTAMs facility: AOO (NOTAM-D service available)
Attendance: MON - SAT 0900-DUSK
UNATNDD THANKSGIVING, CHRISTMAS, NEW YEARS DAY & SUNDAYS.
Wind indicator: lighted
Segmented circle: yes
Lights: ACTVT MIRL; REIL; PAPI RWY 15/33 - CTAF.
Beacon: white-green (lighted land airport)
Operates sunset to sunrise.

Airport Communications

CTAF/UNICOM: 122.8
YOUNGSTOWN APPROACH: 133.95
YOUNGSTOWN DEPARTURE: 133.95
WX ASOS at GKJ (13 nm NE): 121.425 (814-337-2590)
WX ASOS at YNG (17 nm SW): PHONE 330-856-9357
  • APCH/DEP SERVICE PROVIDED BY CLEVELAND ARTCC ON FREQS 120.775/298.95 (CHARDON RCAG) WHEN YOUNGSTOWN APCH CLSD.

Nearby radio navigation aids

VOR radial/distance  VOR name  Freq  Var
YNGr066/14.5YOUNGSTOWN VORTAC109.0005W
FKLr277/(24.0)FRANKLIN VOR109.6006W
JFNr145/24.7JEFFERSON VOR/DME115.2005W
ERIr193/34.5ERIE VORTAC109.4006W
CXRr102/35.0CHARDON VOR/DME112.7005W
EWCr356/38.2ELLWOOD CITY VOR/DME115.8008W

 
NDB name  Hdg/Dist  Freq  Var  ID
CASTLE012/25.427209WUCP ..- -.-. .--.

Airport Services

Fuel available: 100LL
SELF-SVC FUEL AVBL.
Parking: tiedowns
Airframe service: MAJOR
Powerplant service: MAJOR
Bottled oxygen: NONE
Bulk oxygen: NONE

Runway Information

Runway 15/33

Dimensions: 3006 x 75 ft. / 916 x 23 m
Surface: asphalt, in good condition
UNEVEN PAVEMENT 100 FT DOWN RWY 15 & 200 FT DOWN RWY 33.
Weight bearing capacity: 
Single wheel: 12.5
Runway edge lights: medium intensity
Gradient: SE.
RUNWAY 15  RUNWAY 33
Latitude: 41-26.992167N41-26.610333N
Longitude: 080-23.681833W080-23.263667W
Elevation: 1163.3 ft.1206.2 ft.
Gradient: 1.4% UP0.4%
Traffic pattern: leftleft
Runway heading: 150 magnetic, 141 true330 magnetic, 321 true
Markings: nonprecision, in good conditionnonprecision, in good condition
Visual slope indicator: 2-light PAPI on left (3.00 degrees glide path)2-light PAPI on left (3.00 degrees glide path)
Runway end identifier lights: yesyes
Touchdown point: yes, no lightsyes, no lights
Obstructions: 19 ft. trees, 291 ft. from runway, 120 ft. of centerline, 4:1 slope to clear25 ft. trees, 381 ft. from runway, 117 ft. of centerline, 7:1 slope to clear

Runway 5/23

Dimensions: 2551 x 118 ft. / 778 x 36 m
Surface: turf, in good condition
Runway edge markings: RWY 05/23 MKD WITH YELLOW CONES.
Gradient: SW.
RUNWAY 5  RUNWAY 23
Latitude: 41-26.653233N41-26.969900N
Longitude: 080-23.654033W080-23.287350W
Elevation: 1196.0 ft.1183.7 ft.
Gradient: 0.8%0.5% UP
Traffic pattern: leftleft
Runway heading: 050 magnetic, 041 true230 magnetic, 221 true
Displaced threshold: 984 ft.
DSPLCD THLD MKD WITH YELLOW CONES.
no
Markings: NSTD, in good conditionNSTD, in good condition
Touchdown point: yes, no lightsyes, no lights
Obstructions: 62 ft. trees, 403 ft. from runway, 106 ft. right of centerline, 6:1 slope to clear
20:1 TO DSPLCD THLD.
37 ft. trees, 143 ft. from runway, 124 ft. right of centerline, 3:1 slope to clear

Airport Ownership and Management from official FAA records

Ownership: Publicly-owned
Owner: BOROUGH OF GREENVILLE
MUNICIPAL BLDG
GREENVILLE, PA 16125
Phone 724-588-4193
Manager: FRED MURRIN
511 E JAMESTOWN RD
GREENVILLE, PA 16125
Phone 724-588-1665

Airport Operational Statistics

Aircraft based on the field: 6
Single engine airplanes: 6
    
Aircraft operations: avg 50/day *
82% local general aviation
18% transient general aviation
<1% military
* for 12-month period ending 16 May 2018

Additional Remarks

DEER & BIRDS ON & INVOF ARPT.
PAEW ON & INVOF ARPT.
APCH/DEP SVC BY CLEVELAND ARTCC (ZOB) 120.775/298.95 OR CALL ZOB 440-774-0227 WHEN YOUNGSTOWN APCH CTL (YNG) CLSD.

Instrument Procedures

NOTE: All procedures below are presented as PDF files. If you need a reader for these files, you should download the free Adobe Reader.

NOT FOR NAVIGATION. Please procure official charts for flight.
FAA instrument procedures published for use from 6 December 2018 at 0901Z to 3 January 2019 at 0900Z.

 
IAPs - Instrument Approach Procedures
RNAV (GPS)-B   download (142KB)
NOTE: Special Take-Off Minimums/Departure Procedures apply   download (210KB)

Other nearby airports with instrument procedures:

KGKJ - Port Meadville Airport (13 nm NE)
KYNG - Youngstown-Warren Regional Airport (17 nm SW)
29D - Grove City Airport (21 nm SE)
KHZY - Northeast Ohio Regional Airport (24 nm NW)
KFKL - Venango Regional Airport (24 nm E)
 
Loc | Ops | Rwys | IFR | FBO | Links
Com | Nav | Svcs | Stats | Notes


 
Area around 4G1 (Greenville Municipal Airport)
 
Road maps at: MapQuest Bing Google
 
Aerial photo
WARNING: Photo may not be current or correct
Aerial photo of 4G1 (Greenville Municipal Airport)
Photo by Bill Pixley
Photo taken 20-Sep-2017
looking west.

Do you have a better or more recent aerial photo of Greenville Municipal Airport that you would like to share? If so, please send us your photo.

 
Sectional chart

 
Airport distance calculator
Flying to Greenville Municipal Airport? Find the distance to fly.

From to 4G1

Sunrise and sunset
Times for 11-Dec-2018
 Local
(UTC-5)
 Zulu
(UTC)
Morning civil twilight07:0712:07
Sunrise07:3912:39
Sunset16:5121:51
Evening civil twilight17:2222:22

Current date and time
Zulu (UTC)  11-Dec-2018 11:00:51
Local (UTC-5)  11-Dec-2018 06:00:51
 
METAR
KGKJ 
14nm NE 
111053Z AUTO 20009KT 8SM OVC012 M06/M07 A3006 RMK AO2 SLP199 T10561072
KYNG 
17nm SW 
111051Z 20005KT 6SM BR BKN012 M05/M07 A3010 RMK AO2 SLP208 T10501072
KFKL 
24nm E 
110956Z AUTO 21011KT 10SM OVC013 M06/M08 A3008 RMK AO2 SLP210 T10561078 FZRANO
KHZY 
24nm NW 
111053Z AUTO 21006KT 6SM BR CLR M04/M07 A3009 RMK AO2 SLP201 T10441067
KUCP 
25nm S 
110956Z AUTO VRB04KT 9SM OVC015 M04/M07 A3014 RMK AO2 SLP235 T10441072
TAF
KYNG 
17nm SW 
110536Z 1106/1206 22006KT P6SM OVC019 FM111800 22011KT P6SM BKN025 FM120400 28005KT P6SM BKN015
NOTAMs
Click for the latest NOTAMs
NOTAMs are issued by the DoD/FAA and will open in a separate window not controlled by AirNav.

 

 
 

FBO, Fuel Providers, and Aircraft Ground Support

  
 Business Name 
 
 Contact 
 
 Services / Description 
 
Fuel Prices
 
Comments
  
Elbow Street Aviation Services 724-588-1665
no information available

If you are affiliated with Elbow Street Aviation Services and would like to show here your services, contact info, web link, logo, and more, click here
100LL
AS $5.25 
 Updated 14-Nov-2018
 
   write
AS=Assisted/Self Service
Update Fuel Prices
 

Would you like to see your business listed on this page?

 If your business provides an interesting product or service to pilots, flight crews, aircraft, or users of the Greenville Municipal Airport, you should consider listing it here.  To start the listing process, click on the button below
 
Add a business
 

Other Pages about Greenville Municipal Airport

Update a link
 
Copyright © AirNav, LLC. All rights reserved. Privacy Policy  Contact